Aviation Digital Data Service (ADDS)

Output produced by METARs form (0212 UTC 03 July 2022)
found at http://aviationweather.gov/metar/data/
 
KBWI 022344Z 0300/0406 21008KT 6SM -SHRA VCTS SCT040CB BKN150 
     TEMPO 0300/0302 30010G20KT 2SM TSRA 
     FM030300 VRB04KT 6SM -SHRA BKN050 BKN120 
     FM030500 VRB03KT 5SM BR SCT020 BKN120 
     FM030900 34005KT P6SM SCT050 BKN120 
     FM031400 35006KT P6SM BKN060 
     FM040200 30003KT P6SM SKC
       
KSBY 022320Z 0300/0324 20008KT P6SM BKN120 
     FM030800 23004KT P6SM BKN040 
     FM031000 26003KT P6SM VCSH OVC015 
     FM031500 32006KT P6SM OVC020 
     FM031900 36008KT P6SM BKN050